Time;durP1;ratioP1;P1;durP2;ratioP2;P2;SDS_P1;SDS_P2;PMS_P1;PMS_P2;Temp;Humidity;BMP_temperature;BMP_pressure;BME280_temperature;BME280_humidity;BME280_pressure;Samples;Min_cycle;Max_cycle;Signal;HPM_P1;HPM_P2
2024/01/05 00:00:08;;;;;;;41.30;8.35;;;3.10;99.90;;;;;;5089248;28;20056;-64
2024/01/05 00:02:36;;;;;;;36.55;8.27;;;3.10;99.90;;;;;;5087961;28;20066;-64
2024/01/05 00:05:04;;;;;;;34.80;8.90;;;3.10;99.90;;;;;;5099292;28;20043;-64
2024/01/05 00:07:34;;;;;;;37.95;10.23;;;3.20;99.90;;;;;;5109802;28;20063;-67
2024/01/05 00:10:02;;;;;;;36.35;10.25;;;3.20;99.90;;;;;;5108512;28;20039;-71
2024/01/05 00:12:30;;;;;;;47.67;13.27;;;3.20;99.90;;;;;;5085227;28;20052;-65
2024/01/05 00:14:57;;;;;;;57.38;14.98;;;3.30;99.90;;;;;;5088530;28;20048;-71
2024/01/05 00:17:25;;;;;;;49.63;15.38;;;3.30;99.90;;;;;;5089559;28;20059;-68
2024/01/05 00:19:53;;;;;;;59.78;17.20;;;3.30;99.90;;;;;;5089292;28;20047;-66
2024/01/05 00:22:21;;;;;;;49.45;17.90;;;3.40;99.90;;;;;;5089516;28;20051;-64
2024/01/05 00:24:48;;;;;;;50.75;20.63;;;3.30;99.90;;;;;;5108254;28;20054;-66
2024/01/05 00:27:16;;;;;;;65.95;20.73;;;3.30;99.90;;;;;;5088294;28;20044;-70
2024/01/05 00:29:44;;;;;;;65.43;22.63;;;3.20;99.90;;;;;;5089131;28;20052;-68
2024/01/05 00:32:12;;;;;;;62.38;20.40;;;3.30;99.90;;;;;;5087717;28;20048;-67
2024/01/05 00:34:43;;;;;;;66.07;21.65;;;3.30;99.90;;;;;;5090231;28;20032;-73
2024/01/05 00:37:11;;;;;;;73.13;19.40;;;3.30;99.90;;;;;;5089332;28;20044;-67
2024/01/05 00:39:39;;;;;;;53.95;20.00;;;3.30;99.90;;;;;;5088925;28;20505;-66
2024/01/05 00:42:07;;;;;;;59.70;19.27;;;3.30;99.90;;;;;;5072722;28;20048;-65
2024/01/05 00:44:34;;;;;;;60.25;18.58;;;3.30;99.90;;;;;;5086846;28;20476;-65
2024/01/05 00:47:02;;;;;;;62.70;18.63;;;3.30;99.90;;;;;;5088320;28;20047;-64
2024/01/05 00:49:30;;;;;;;49.80;18.73;;;3.30;99.90;;;;;;5088989;28;20898;-68
2024/01/05 00:51:58;;;;;;;65.32;18.85;;;3.30;99.90;;;;;;5089109;28;20079;-65
2024/01/05 00:54:26;;;;;;;58.80;17.83;;;3.30;99.90;;;;;;5105343;28;20043;-67
2024/01/05 00:56:54;;;;;;;63.47;16.77;;;3.20;99.90;;;;;;5094518;28;20048;-64
2024/01/05 00:59:22;;;;;;;58.15;15.32;;;3.30;99.90;;;;;;5096286;28;20487;-71
2024/01/05 01:01:50;;;;;;;49.53;15.05;;;3.30;99.90;;;;;;5086349;28;20047;-66
2024/01/05 01:04:18;;;;;;;43.20;14.15;;;3.20;99.90;;;;;;5089235;28;20066;-68
2024/01/05 01:06:47;;;;;;;53.92;13.20;;;3.30;99.90;;;;;;5106348;28;20043;-73
2024/01/05 01:09:15;;;;;;;52.53;16.33;;;3.30;99.90;;;;;;5095049;28;20043;-69
2024/01/05 01:11:43;;;;;;;44.33;14.10;;;3.30;99.90;;;;;;5076961;28;20044;-74
2024/01/05 01:14:10;;;;;;;45.50;14.02;;;3.30;99.90;;;;;;5095849;28;20055;-74
2024/01/05 01:16:38;;;;;;;62.50;14.35;;;3.30;99.90;;;;;;5108145;28;20040;-74
2024/01/05 01:19:06;;;;;;;43.67;12.82;;;3.40;99.90;;;;;;5088186;28;20048;-74
2024/01/05 01:21:34;;;;;;;58.60;15.20;;;3.40;99.90;;;;;;5088476;28;20048;-74
2024/01/05 01:24:02;;;;;;;50.30;15.73;;;3.40;99.90;;;;;;5087572;28;20048;-69
2024/01/05 01:26:30;;;;;;;52.95;15.35;;;3.50;99.90;;;;;;5085312;28;20048;-74
2024/01/05 01:28:58;;;;;;;55.45;15.48;;;3.50;99.90;;;;;;5088150;28;20040;-74
2024/01/05 01:31:28;;;;;;;60.92;19.50;;;3.50;99.90;;;;;;5086777;28;20048;-72
2024/01/05 01:33:56;;;;;;;54.13;17.98;;;3.50;99.90;;;;;;5086460;28;20044;-72
2024/01/05 01:36:24;;;;;;;59.55;18.27;;;3.60;99.90;;;;;;5087849;28;20048;-72
2024/01/05 01:38:52;;;;;;;60.72;18.48;;;3.60;99.90;;;;;;5086388;28;20036;-73
2024/01/05 01:41:20;;;;;;;74.03;19.55;;;3.60;99.90;;;;;;5068284;28;20052;-74
2024/01/05 01:43:48;;;;;;;73.20;19.63;;;3.50;99.90;;;;;;5097906;28;20047;-74
2024/01/05 01:46:20;;;;;;;64.10;21.33;;;3.50;99.90;;;;;;5107310;28;20058;-75
2024/01/05 01:48:49;;;;;;;64.25;19.75;;;3.50;99.90;;;;;;5107080;28;20042;-74
2024/01/05 01:51:17;;;;;;;68.75;19.48;;;3.50;99.90;;;;;;5087422;28;20044;-74
2024/01/05 01:53:45;;;;;;;57.90;18.10;;;3.50;99.90;;;;;;5086583;28;20048;-73
2024/01/05 01:56:13;;;;;;;58.95;17.33;;;3.40;99.90;;;;;;5083600;28;20048;-74
2024/01/05 01:58:43;;;;;;;63.83;17.58;;;3.40;99.90;;;;;;5074093;28;20491;-74
2024/01/05 02:01:12;;;;;;;66.25;17.45;;;3.30;99.90;;;;;;5088040;28;20482;-74
2024/01/05 02:03:40;;;;;;;53.30;17.55;;;3.20;99.90;;;;;;5085637;28;20050;-74
2024/01/05 02:06:08;;;;;;;73.68;19.08;;;3.20;99.90;;;;;;5107193;28;20039;-71
2024/01/05 02:08:36;;;;;;;67.35;16.75;;;3.10;99.90;;;;;;5100803;28;20047;-73
2024/01/05 02:11:04;;;;;;;97.07;22.23;;;3.00;99.90;;;;;;5085214;28;20067;-74
2024/01/05 02:13:34;;;;;;;76.60;19.13;;;3.00;99.90;;;;;;5076550;28;20557;-66
2024/01/05 02:16:04;;;;;;;68.47;17.98;;;2.90;99.90;;;;;;5087957;28;20288;-68
2024/01/05 02:18:52;;;;;;;61.28;18.08;;;2.80;99.90;;;;;;5086932;28;20052;-63
2024/01/05 02:21:23;;;;;;;67.82;18.65;;;2.80;99.90;;;;;;5092020;28;20059;-64
2024/01/05 02:23:51;;;;;;;58.15;19.52;;;2.70;99.90;;;;;;5102629;28;20052;-64
2024/01/05 02:26:20;;;;;;;70.90;20.10;;;2.80;99.90;;;;;;5103326;28;20060;-74
2024/01/05 02:28:48;;;;;;;71.45;21.00;;;2.80;99.90;;;;;;5090524;28;20052;-66
2024/01/05 02:31:15;;;;;;;85.43;23.27;;;2.80;99.90;;;;;;5086689;28;20325;-64
2024/01/05 02:33:43;;;;;;;106.45;24.15;;;2.80;99.90;;;;;;5095037;28;20044;-63
2024/01/05 02:36:11;;;;;;;88.13;20.98;;;2.90;99.90;;;;;;5114507;28;20066;-63
2024/01/05 02:38:39;;;;;;;88.53;23.90;;;2.90;99.90;;;;;;5107431;28;20048;-63
2024/01/05 02:41:07;;;;;;;85.03;23.17;;;3.00;99.90;;;;;;5092816;28;20040;-64
2024/01/05 02:43:34;;;;;;;116.53;26.13;;;3.00;99.90;;;;;;5074545;28;20049;-63
2024/01/05 02:46:02;;;;;;;88.28;24.33;;;3.00;99.90;;;;;;5071827;28;20052;-65
2024/01/05 02:48:30;;;;;;;87.18;25.35;;;3.00;99.90;;;;;;5075470;28;20491;-64
2024/01/05 02:50:58;;;;;;;108.18;26.15;;;3.10;99.90;;;;;;5092646;28;20036;-65
2024/01/05 02:53:25;;;;;;;97.18;26.15;;;3.20;99.90;;;;;;5094906;28;20066;-64
2024/01/05 02:55:53;;;;;;;104.40;25.73;;;3.20;99.90;;;;;;5094334;28;20495;-68
2024/01/05 02:58:20;;;;;;;128.32;28.10;;;3.20;99.90;;;;;;5094123;28;20044;-63
2024/01/05 03:00:48;;;;;;;132.30;27.50;;;3.20;99.90;;;;;;5075829;28;20033;-64
2024/01/05 03:03:16;;;;;;;107.40;27.27;;;3.30;99.90;;;;;;5074849;28;20045;-66
2024/01/05 03:05:44;;;;;;;139.07;28.38;;;3.20;99.90;;;;;;5098569;28;20047;-72
2024/01/05 03:08:11;;;;;;;113.85;26.40;;;3.30;99.90;;;;;;5094308;28;20702;-69
2024/01/05 03:10:39;;;;;;;107.90;25.67;;;3.30;99.90;;;;;;5076411;28;20043;-68
2024/01/05 03:13:06;;;;;;;120.05;26.80;;;3.40;99.90;;;;;;5089466;28;20055;-65
2024/01/05 03:15:34;;;;;;;98.57;25.88;;;3.40;99.90;;;;;;5093220;28;20431;-66
2024/01/05 03:18:03;;;;;;;108.57;25.98;;;3.40;99.90;;;;;;5092325;28;20071;-65
2024/01/05 03:20:31;;;;;;;112.47;27.50;;;3.40;99.90;;;;;;5093962;28;20391;-68
2024/01/05 03:22:58;;;;;;;134.70;26.75;;;3.40;99.90;;;;;;5094044;28;20403;-65
2024/01/05 03:25:26;;;;;;;113.93;27.13;;;3.50;99.90;;;;;;5092636;28;20040;-71
2024/01/05 03:27:54;;;;;;;121.78;27.52;;;3.50;99.90;;;;;;5092036;28;20056;-72
2024/01/05 03:30:21;;;;;;;149.65;28.85;;;3.50;99.90;;;;;;5093018;28;20040;-65
2024/01/05 03:32:49;;;;;;;141.52;27.90;;;3.50;99.90;;;;;;5091182;28;20612;-64
2024/01/05 03:35:17;;;;;;;143.80;29.45;;;3.50;99.90;;;;;;5105268;28;20052;-64
2024/01/05 03:37:44;;;;;;;145.05;29.23;;;3.50;99.90;;;;;;5108602;28;20475;-66
2024/01/05 03:40:12;;;;;;;121.18;29.08;;;3.50;99.90;;;;;;5092877;28;20131;-64
2024/01/05 03:42:39;;;;;;;141.48;28.63;;;3.60;99.90;;;;;;5094168;28;20083;-64
2024/01/05 03:45:07;;;;;;;133.80;26.63;;;3.60;99.90;;;;;;5093561;28;20395;-68
2024/01/05 03:47:35;;;;;;;134.70;26.75;;;3.60;99.90;;;;;;5093496;28;20399;-66
2024/01/05 03:50:03;;;;;;;121.47;27.95;;;3.60;99.90;;;;;;5090032;28;20044;-63
2024/01/05 03:52:31;;;;;;;113.75;26.77;;;3.60;99.90;;;;;;5093690;28;20044;-64
2024/01/05 03:55:01;;;;;;;112.15;25.83;;;3.60;99.90;;;;;;5092822;28;20064;-68
2024/01/05 03:57:28;;;;;;;;;;;3.60;99.90;;;;;;5083182;28;20048;-67
2024/01/05 03:59:56;;;;;;;113.00;23.15;;;3.60;99.90;;;;;;5088319;28;19944;-64
2024/01/05 04:02:24;;;;;;;120.05;23.77;;;3.60;99.90;;;;;;5092112;28;20047;-64
2024/01/05 04:04:51;;;;;;;95.20;23.25;;;3.60;99.90;;;;;;5101681;28;20066;-63
2024/01/05 04:07:19;;;;;;;101.25;25.63;;;3.70;99.90;;;;;;5113597;28;20048;-65
2024/01/05 04:09:48;;;;;;;87.90;23.50;;;3.60;99.90;;;;;;5109908;28;20040;-66
2024/01/05 04:12:17;;;;;;;96.10;23.33;;;3.60;99.90;;;;;;5093139;28;20071;-68
2024/01/05 04:14:45;;;;;;;121.18;24.80;;;3.60;99.90;;;;;;5093098;28;20242;-66
2024/01/05 04:17:13;;;;;;;84.05;22.58;;;3.70;99.90;;;;;;5092263;28;20431;-64
2024/01/05 04:19:40;;;;;;;87.72;24.63;;;3.70;99.90;;;;;;5092772;28;20059;-63
2024/01/05 04:22:08;;;;;;;124.53;26.30;;;3.70;99.90;;;;;;5092976;28;20399;-67
2024/01/05 04:24:36;;;;;;;94.18;24.02;;;3.70;99.90;;;;;;5090867;28;20044;-65
2024/01/05 04:27:04;;;;;;;109.70;24.80;;;3.70;99.90;;;;;;5092857;28;20043;-64
2024/01/05 04:29:31;;;;;;;111.32;24.13;;;3.70;99.90;;;;;;5092561;28;20048;-64
2024/01/05 04:31:59;;;;;;;119.68;25.20;;;3.80;99.90;;;;;;5091571;28;20036;-71
2024/01/05 04:34:26;;;;;;;111.18;26.58;;;3.70;99.90;;;;;;5097483;28;20052;-74
2024/01/05 04:36:54;;;;;;;98.22;23.88;;;3.80;99.90;;;;;;5111914;28;20051;-74
2024/01/05 04:39:22;;;;;;;92.53;23.90;;;3.80;99.90;;;;;;5083639;28;20504;-72
2024/01/05 04:41:50;;;;;;;92.85;24.50;;;3.80;99.90;;;;;;5074732;28;20052;-72
2024/01/05 04:44:17;;;;;;;75.88;22.15;;;3.80;99.90;;;;;;5092399;28;20051;-72
2024/01/05 04:46:45;;;;;;;82.75;21.98;;;3.80;99.90;;;;;;5091552;28;20055;-74
2024/01/05 04:49:13;;;;;;;77.95;21.90;;;3.80;99.90;;;;;;5092342;28;20051;-67
2024/01/05 04:51:41;;;;;;;80.68;21.10;;;3.70;99.90;;;;;;5090933;28;20051;-66
2024/01/05 04:54:10;;;;;;;;;;;3.70;99.90;;;;;;5091845;28;20055;-71
2024/01/05 04:56:38;;;;;;;81.70;20.95;;;3.70;99.90;;;;;;5090959;28;19927;-74
2024/01/05 04:59:07;;;;;;;80.45;23.88;;;3.60;99.90;;;;;;5092095;28;20044;-72
2024/01/05 05:01:35;;;;;;;89.80;24.92;;;3.60;99.90;;;;;;5092068;28;20044;-74
2024/01/05 05:04:03;;;;;;;90.57;23.50;;;3.60;99.90;;;;;;5093741;28;20040;-63
2024/01/05 05:06:31;;;;;;;107.75;26.42;;;3.60;99.90;;;;;;5107926;28;20040;-64
2024/01/05 05:08:59;;;;;;;111.50;25.80;;;3.60;99.90;;;;;;5091954;28;20407;-68
2024/01/05 05:11:26;;;;;;;109.30;24.42;;;3.60;99.90;;;;;;5090572;28;20044;-64
2024/01/05 05:13:54;;;;;;;123.40;24.48;;;3.60;99.90;;;;;;5091388;28;20048;-65
2024/01/05 05:16:22;;;;;;;124.72;26.73;;;3.60;99.90;;;;;;5090658;28;20032;-70
2024/01/05 05:18:49;;;;;;;127.85;27.25;;;3.60;99.90;;;;;;5090773;28;20376;-65
2024/01/05 05:21:17;;;;;;;119.72;26.63;;;3.60;99.90;;;;;;5092131;28;20047;-66
2024/01/05 05:23:45;;;;;;;133.98;27.48;;;3.60;99.90;;;;;;5091769;28;20058;-65
2024/01/05 05:26:12;;;;;;;128.80;26.30;;;3.60;99.90;;;;;;5091853;28;20471;-75
2024/01/05 05:28:40;;;;;;;113.65;24.75;;;3.60;99.90;;;;;;5091382;28;20044;-75
2024/01/05 05:31:08;;;;;;;137.65;26.88;;;3.60;99.90;;;;;;5091319;28;20040;-72
2024/01/05 05:33:36;;;;;;;135.50;27.83;;;3.60;99.90;;;;;;5091805;28;20044;-76
2024/01/05 05:36:04;;;;;;;147.45;28.38;;;3.60;99.90;;;;;;5096217;28;20047;-74
2024/01/05 05:38:32;;;;;;;142.60;29.30;;;3.60;99.90;;;;;;5090991;28;20048;-73
2024/01/05 05:40:59;;;;;;;145.15;28.83;;;3.60;99.90;;;;;;5091807;28;20043;-73
2024/01/05 05:43:27;;;;;;;140.52;26.73;;;3.70;99.90;;;;;;5091637;28;20043;-73
2024/01/05 05:45:56;;;;;;;156.98;27.17;;;3.70;99.90;;;;;;5091386;28;20494;-65
2024/01/05 05:48:24;;;;;;;131.73;27.13;;;3.70;99.90;;;;;;5074552;28;20049;-75
2024/01/05 05:50:52;;;;;;;146.73;26.95;;;3.70;99.90;;;;;;5067811;28;20051;-69
2024/01/05 05:53:20;;;;;;;130.98;29.58;;;3.70;99.90;;;;;;5083287;28;20044;-70
2024/01/05 05:55:48;;;;;;;110.78;27.25;;;3.80;99.90;;;;;;5087993;28;20518;-72
2024/01/05 05:58:16;;;;;;;111.93;25.92;;;3.80;99.90;;;;;;5081876;28;20702;-70
2024/01/05 06:00:43;;;;;;;105.35;27.05;;;3.80;99.90;;;;;;5088674;28;20490;-71
2024/01/05 06:03:11;;;;;;;94.78;26.42;;;3.80;99.90;;;;;;5062389;28;20052;-63
2024/01/05 06:05:41;;;;;;;114.10;25.05;;;3.80;99.90;;;;;;5098468;28;20047;-64
2024/01/05 06:08:09;;;;;;;81.18;24.08;;;3.80;99.90;;;;;;5099070;28;20044;-64
2024/01/05 06:10:37;;;;;;;77.03;24.70;;;3.80;99.90;;;;;;5073328;28;20141;-65
2024/01/05 06:13:05;;;;;;;83.22;25.08;;;3.80;99.90;;;;;;5080555;28;20788;-65
2024/01/05 06:15:33;;;;;;;90.68;22.48;;;3.80;99.90;;;;;;5088021;28;20063;-63
2024/01/05 06:18:01;;;;;;;81.85;22.95;;;3.80;99.90;;;;;;5082898;28;20044;-63
2024/01/05 06:20:28;;;;;;;60.05;22.05;;;3.70;99.90;;;;;;5071146;28;20657;-65
2024/01/05 06:22:56;;;;;;;81.43;25.98;;;3.70;99.90;;;;;;5078822;28;20066;-64
2024/01/05 06:25:24;;;;;;;62.78;23.02;;;3.70;99.90;;;;;;5087522;28;20048;-65
2024/01/05 06:27:51;;;;;;;50.85;21.33;;;3.70;99.90;;;;;;5087296;28;20050;-63
2024/01/05 06:30:19;;;;;;;67.72;22.67;;;3.80;99.90;;;;;;5086752;28;20055;-63
2024/01/05 06:32:47;;;;;;;63.28;21.67;;;3.80;99.90;;;;;;5088335;28;20036;-68
2024/01/05 06:35:17;;;;;;;60.08;22.65;;;3.80;99.90;;;;;;5103304;28;20403;-71
2024/01/05 06:37:46;;;;;;;54.83;23.10;;;3.80;99.90;;;;;;5104700;28;20422;-68
2024/01/05 06:40:13;;;;;;;65.30;23.65;;;3.80;99.90;;;;;;5091850;28;20048;-63
2024/01/05 06:42:41;;;;;;;53.13;22.50;;;3.80;99.90;;;;;;5086456;28;20055;-63
2024/01/05 06:45:11;;;;;;;69.30;24.13;;;3.90;99.90;;;;;;5088234;28;20048;-64
2024/01/05 06:47:48;;;;;;;74.05;27.90;;;3.90;99.90;;;;;;5085046;28;20071;-69
2024/01/05 06:50:16;;;;;;;70.25;23.90;;;3.90;99.90;;;;;;5074324;28;20047;-67
2024/01/05 06:52:45;;;;;;;70.22;23.80;;;3.90;99.90;;;;;;5089048;28;20048;-71
2024/01/05 06:55:12;;;;;;;77.65;24.35;;;3.90;99.90;;;;;;5091504;28;20487;-67
2024/01/05 06:57:40;;;;;;;68.18;24.42;;;3.90;99.90;;;;;;5089385;28;20048;-65
2024/01/05 07:00:09;;;;;;;55.80;23.05;;;4.00;99.90;;;;;;5089993;28;20054;-69
2024/01/05 07:02:37;;;;;;;100.72;26.92;;;4.00;99.90;;;;;;5086915;28;20487;-72
2024/01/05 07:05:05;;;;;;;69.20;22.40;;;4.00;99.90;;;;;;5077480;28;20040;-69
2024/01/05 07:07:33;;;;;;;62.20;23.17;;;4.00;99.90;;;;;;5090645;28;20044;-67
2024/01/05 07:10:00;;;;;;;55.80;20.90;;;4.00;99.90;;;;;;5090559;28;20044;-70
2024/01/05 07:12:28;;;;;;;64.22;20.80;;;4.00;99.90;;;;;;5090312;28;20060;-72
2024/01/05 07:14:56;;;;;;;68.15;23.23;;;4.10;99.90;;;;;;5110820;28;20055;-67
2024/01/05 07:17:23;;;;;;;50.45;18.92;;;4.10;99.90;;;;;;5098428;28;20078;-66
2024/01/05 07:19:51;;;;;;;50.95;19.98;;;4.10;99.90;;;;;;5084433;28;20056;-69
2024/01/05 07:22:19;;;;;;;55.60;18.95;;;4.10;99.90;;;;;;5085025;28;20475;-71
2024/01/05 07:24:48;;;;;;;64.45;20.20;;;4.10;99.90;;;;;;5097898;28;20044;-64
2024/01/05 07:27:16;;;;;;;58.38;19.05;;;4.10;99.90;;;;;;5088553;28;20040;-71
2024/01/05 07:29:45;;;;;;;67.47;19.42;;;4.20;99.90;;;;;;5090343;28;20051;-67
2024/01/05 07:32:12;;;;;;;52.63;18.88;;;4.10;99.90;;;;;;5087595;28;20063;-65
2024/01/05 07:34:43;;;;;;;56.20;18.55;;;4.10;99.90;;;;;;5094276;28;20078;-70
2024/01/05 07:37:11;;;;;;;59.45;18.63;;;4.20;99.90;;;;;;5085587;28;20048;-68
2024/01/05 07:39:39;;;;;;;52.60;17.33;;;4.20;99.90;;;;;;5090517;28;20048;-67
2024/01/05 07:42:06;;;;;;;53.22;16.23;;;4.20;99.90;;;;;;5071805;28;20063;-64
2024/01/05 07:44:34;;;;;;;67.53;20.48;;;4.20;99.90;;;;;;5089940;28;20044;-68
2024/01/05 07:47:02;;;;;;;53.80;18.40;;;4.20;99.90;;;;;;5089097;28;20063;-63
2024/01/05 07:49:30;;;;;;;50.35;18.45;;;4.20;99.90;;;;;;5077798;28;20060;-68
2024/01/05 07:51:58;;;;;;;60.47;18.85;;;4.20;99.90;;;;;;5074143;28;20388;-64
2024/01/05 07:54:26;;;;;;;71.65;20.50;;;4.20;99.90;;;;;;5099880;28;20055;-71
2024/01/05 07:56:53;;;;;;;56.28;16.83;;;4.20;99.90;;;;;;5089088;28;20505;-70
2024/01/05 07:59:21;;;;;;;60.28;19.38;;;4.10;99.90;;;;;;5088540;28;20613;-68
2024/01/05 08:01:52;;;;;;;58.72;17.70;;;4.10;99.90;;;;;;5073370;28;20391;-73
2024/01/05 08:04:20;;;;;;;53.42;17.40;;;4.10;99.90;;;;;;5085793;28;20050;-72
2024/01/05 08:06:48;;;;;;;62.20;16.73;;;4.00;99.90;;;;;;5107799;28;20051;-73
2024/01/05 08:09:15;;;;;;;91.70;19.50;;;3.90;99.90;;;;;;5089853;28;20046;-64
2024/01/05 08:11:43;;;;;;;56.80;16.35;;;3.90;99.90;;;;;;5089732;28;20644;-64
2024/01/05 08:14:12;;;;;;;59.27;16.63;;;3.80;99.90;;;;;;5082979;28;20055;-65
2024/01/05 08:16:40;;;;;;;59.30;15.75;;;3.80;99.90;;;;;;5087976;28;20048;-65
2024/01/05 08:19:07;;;;;;;67.15;19.83;;;3.80;99.90;;;;;;5081724;28;20041;-65
2024/01/05 08:21:35;;;;;;;62.13;17.00;;;3.80;99.90;;;;;;5068305;28;20454;-64
2024/01/05 08:24:03;;;;;;;74.03;16.77;;;3.80;99.90;;;;;;5088512;28;20032;-74
2024/01/05 08:26:31;;;;;;;73.80;19.25;;;3.90;99.90;;;;;;5089333;28;20040;-68
2024/01/05 08:28:58;;;;;;;67.50;19.67;;;3.90;99.90;;;;;;5085940;28;20490;-67
2024/01/05 08:31:26;;;;;;;70.35;20.35;;;4.00;99.90;;;;;;5089350;28;20047;-67
2024/01/05 08:33:54;;;;;;;85.18;22.33;;;4.00;99.90;;;;;;5084651;28;20041;-67
2024/01/05 08:36:22;;;;;;;74.13;23.90;;;4.10;99.90;;;;;;5091710;28;20062;-65
2024/01/05 08:38:50;;;;;;;81.43;24.10;;;4.10;99.90;;;;;;5094718;28;20040;-68
2024/01/05 08:41:17;;;;;;;82.90;24.25;;;4.10;99.90;;;;;;5089002;28;20051;-69
2024/01/05 08:43:45;;;;;;;73.75;21.20;;;4.10;99.90;;;;;;5088919;28;20051;-67
2024/01/05 08:46:13;;;;;;;72.90;20.67;;;4.10;99.90;;;;;;5087833;28;20494;-73
2024/01/05 08:48:44;;;;;;;68.93;23.20;;;4.10;99.90;;;;;;5086763;28;20528;-67
2024/01/05 08:51:11;;;;;;;63.35;19.70;;;4.10;99.90;;;;;;5074942;28;20052;-74
2024/01/05 08:53:41;;;;;;;72.15;18.67;;;4.20;99.90;;;;;;5094981;28;20100;-64
2024/01/05 08:56:10;;;;;;;66.53;18.83;;;4.20;99.90;;;;;;5089045;28;20400;-63
2024/01/05 08:58:37;;;;;;;62.20;18.88;;;4.20;99.90;;;;;;5086248;28;20047;-64
2024/01/05 09:01:05;;;;;;;65.25;15.90;;;4.20;99.90;;;;;;5067768;28;20060;-65
2024/01/05 09:03:33;;;;;;;70.20;17.65;;;4.20;99.90;;;;;;5085079;28;20486;-65
2024/01/05 09:06:01;;;;;;;59.38;16.67;;;4.20;99.90;;;;;;5101776;28;20058;-63
2024/01/05 09:08:29;;;;;;;72.72;16.05;;;4.30;99.90;;;;;;5093722;28;20040;-64
2024/01/05 09:10:57;;;;;;;70.22;17.08;;;4.30;99.90;;;;;;5088754;28;20052;-72
2024/01/05 09:13:24;;;;;;;60.70;16.50;;;4.40;99.90;;;;;;5095165;28;20600;-72
2024/01/05 09:15:53;;;;;;;53.47;16.30;;;4.40;99.90;;;;;;5088830;28;20051;-73
2024/01/05 09:18:21;;;;;;;66.78;16.48;;;4.50;99.90;;;;;;5088313;28;20055;-69
2024/01/05 09:20:51;;;;;;;64.13;15.85;;;4.50;99.90;;;;;;5070424;28;20041;-73
2024/01/05 09:23:19;;;;;;;57.95;16.95;;;4.50;99.90;;;;;;5085853;28;20044;-75
2024/01/05 09:25:47;;;;;;;55.53;15.13;;;4.60;99.90;;;;;;5088340;28;20513;-69
2024/01/05 09:28:15;;;;;;;73.10;17.65;;;4.60;99.90;;;;;;5087969;28;20044;-67
2024/01/05 09:30:42;;;;;;;53.60;18.05;;;4.60;99.90;;;;;;5087881;28;20054;-66
2024/01/05 09:33:10;;;;;;;70.78;19.88;;;4.60;99.90;;;;;;5092692;28;20047;-65
2024/01/05 09:35:38;;;;;;;71.05;22.27;;;4.60;99.90;;;;;;5073786;28;20053;-64
2024/01/05 09:38:26;;;;;;;65.13;21.10;;;4.60;99.90;;;;;;5078479;28;20059;-66
2024/01/05 09:41:13;;;;;;;67.22;22.00;;;4.60;99.90;;;;;;5087174;28;20055;-63
2024/01/05 09:44:02;;;;;;;65.18;21.27;;;4.70;99.90;;;;;;5086507;28;20048;-63
2024/01/05 09:46:50;;;;;;;60.50;20.50;;;4.80;99.90;;;;;;5073113;28;20055;-63
2024/01/05 09:49:39;;;;;;;44.03;16.58;;;4.90;99.90;;;;;;5066963;28;20048;-64
2024/01/05 09:52:27;;;;;;;53.55;16.73;;;5.00;99.90;;;;;;5072133;28;20067;-64
2024/01/05 09:55:15;;;;;;;58.90;16.95;;;5.10;99.90;;;;;;5087142;28;20047;-64
2024/01/05 09:58:05;;;;;;;51.92;15.07;;;5.20;99.90;;;;;;5086926;28;20056;-63
2024/01/05 10:00:52;;;;;;;;;;;5.30;99.90;;;;;;5087535;28;20410;-64
2024/01/05 10:03:41;;;;;;;47.80;16.38;;;5.40;99.90;;;;;;5093882;28;20295;-65
2024/01/05 10:06:30;;;;;;;50.25;16.98;;;5.40;99.90;;;;;;5080562;28;20492;-66
2024/01/05 10:09:17;;;;;;;48.63;17.57;;;5.50;99.90;;;;;;5078269;28;20511;-66
2024/01/05 10:12:12;;;;;;;51.75;16.13;;;5.50;99.90;;;;;;5083024;28;20052;-64
2024/01/05 10:15:04;;;;;;;39.95;15.48;;;5.50;99.90;;;;;;5086888;28;20052;-64
2024/01/05 10:17:52;;;;;;;42.20;15.27;;;5.50;99.90;;;;;;5086675;28;20060;-64
2024/01/05 10:20:41;;;;;;;61.80;17.05;;;5.60;99.90;;;;;;5079815;28;20064;-66
2024/01/05 10:23:29;;;;;;;46.55;15.02;;;5.60;99.90;;;;;;5086735;28;20411;-64
2024/01/05 10:26:18;;;;;;;47.03;16.55;;;5.60;99.90;;;;;;5068283;28;20048;-67
2024/01/05 10:29:15;;;;;;;50.58;14.65;;;5.70;99.90;;;;;;5083403;28;20412;-64
2024/01/05 10:32:10;;;;;;;47.15;14.77;;;5.70;99.90;;;;;;5088142;28;20056;-64
2024/01/05 10:34:58;;;;;;;44.92;15.43;;;5.70;99.90;;;;;;5086469;28;20123;-64
2024/01/05 10:37:45;;;;;;;43.85;15.50;;;5.70;99.90;;;;;;5077573;28;20055;-69
2024/01/05 10:40:33;;;;;;;51.75;15.82;;;5.80;99.90;;;;;;5108566;28;20048;-64
2024/01/05 10:43:22;;;;;;;39.22;14.38;;;5.70;99.90;;;;;;5104584;28;20052;-64
2024/01/05 10:46:20;;;;;;;42.65;15.52;;;5.80;99.90;;;;;;5076988;28;20048;-67
2024/01/05 10:49:08;;;;;;;37.08;14.68;;;5.80;99.90;;;;;;5090073;28;20055;-65
2024/01/05 10:51:57;;;;;;;45.67;14.88;;;5.80;99.90;;;;;;5087336;28;20053;-73
2024/01/05 10:54:46;;;;;;;46.90;15.82;;;5.80;99.90;;;;;;5089944;28;20052;-69
2024/01/05 10:57:36;;;;;;;31.10;13.57;;;5.80;99.90;;;;;;5090162;28;20532;-71
2024/01/05 11:00:24;;;;;;;34.75;14.15;;;5.90;99.90;;;;;;5076044;28;20055;-68
2024/01/05 11:03:13;;;;;;;33.63;13.25;;;5.90;99.90;;;;;;5089641;28;20052;-70
2024/01/05 11:06:08;;;;;;;39.70;13.80;;;5.90;99.90;;;;;;5089281;28;20060;-71
2024/01/05 11:08:56;;;;;;;30.92;14.52;;;5.90;99.90;;;;;;5084581;28;20519;-69
2024/01/05 11:12:01;;;;;;;31.08;13.45;;;5.90;99.90;;;;;;5089284;28;20499;-71
2024/01/05 11:15:09;;;;;;;34.03;13.70;;;6.00;99.90;;;;;;5095186;28;20055;-69
2024/01/05 11:18:08;;;;;;;35.00;15.45;;;6.00;99.90;;;;;;5089620;28;20058;-66
2024/01/05 11:21:19;;;;;;;39.78;16.17;;;6.00;99.90;;;;;;5088949;28;20483;-71
2024/01/05 11:24:07;;;;;;;38.92;16.50;;;6.10;99.90;;;;;;5082927;28;20071;-69
2024/01/05 11:26:55;;;;;;;32.38;15.93;;;6.10;99.90;;;;;;5089872;28;20056;-64
2024/01/05 11:29:48;;;;;;;30.33;15.68;;;6.10;99.90;;;;;;5069507;28;20055;-66
2024/01/05 11:32:46;;;;;;;37.72;16.98;;;6.20;99.90;;;;;;5067533;28;20043;-63
2024/01/05 11:35:45;;;;;;;30.25;14.63;;;6.20;99.90;;;;;;5074429;28;20055;-68
2024/01/05 11:38:33;;;;;;;34.88;14.98;;;6.20;99.90;;;;;;5081255;28;20060;-66
2024/01/05 11:41:21;;;;;;;28.80;13.48;;;6.20;99.90;;;;;;5089194;28;20059;-65
2024/01/05 11:44:35;;;;;;;34.35;14.38;;;6.30;99.90;;;;;;5096910;28;20062;-71
2024/01/05 11:47:45;;;;;;;33.80;14.82;;;6.50;99.90;;;;;;5088674;28;20044;-69
2024/01/05 11:50:37;;;;;;;27.75;14.68;;;6.80;99.90;;;;;;5084360;28;20052;-63
2024/01/05 11:53:27;;;;;;;28.70;13.98;;;7.00;99.90;;;;;;5081039;28;20056;-65
2024/01/05 11:56:17;;;;;;;27.42;13.80;;;7.00;99.90;;;;;;5069084;28;20044;-66
2024/01/05 11:59:05;;;;;;;31.25;15.27;;;7.00;99.90;;;;;;5071179;28;20052;-64
2024/01/05 12:01:53;;;;;;;29.48;14.38;;;7.00;99.90;;;;;;5087972;28;20063;-67
2024/01/05 12:04:47;;;;;;;31.50;15.98;;;7.00;99.90;;;;;;5094941;28;20054;-64
2024/01/05 12:07:35;;;;;;;21.05;11.93;;;7.20;99.90;;;;;;5085181;28;20056;-63
2024/01/05 12:10:32;;;;;;;22.27;12.35;;;7.60;99.90;;;;;;5088725;28;20066;-62
2024/01/05 12:13:24;;;;;;;25.45;12.07;;;8.10;99.90;;;;;;5079822;28;20059;-62
2024/01/05 12:16:13;;;;;;;15.30;9.77;;;8.50;99.90;;;;;;5069074;28;20064;-64
2024/01/05 12:19:01;;;;;;;14.35;9.30;;;8.90;99.90;;;;;;5066271;28;20048;-63
2024/01/05 12:21:51;;;;;;;18.67;8.45;;;9.30;99.90;;;;;;5068789;28;20788;-63
2024/01/05 12:24:40;;;;;;;14.65;7.38;;;9.40;99.90;;;;;;5084193;28;20067;-66
2024/01/05 12:27:36;;;;;;;11.70;7.53;;;9.20;99.90;;;;;;5088608;28;20048;-63
2024/01/05 12:30:24;;;;;;;14.30;6.80;;;9.00;99.90;;;;;;5088541;28;20048;-63
2024/01/05 12:33:11;;;;;;;10.32;5.97;;;9.20;99.90;;;;;;5078100;28;20070;-63
2024/01/05 12:35:59;;;;;;;10.32;4.80;;;9.70;99.90;;;;;;5083825;28;20527;-65
2024/01/05 12:38:47;;;;;;;11.43;5.70;;;10.30;99.90;;;;;;5081276;28;20055;-68
2024/01/05 12:41:34;;;;;;;23.58;7.47;;;10.70;99.90;;;;;;5088121;28;20060;-65
2024/01/05 12:44:22;;;;;;;11.95;5.88;;;10.70;99.90;;;;;;5081271;28;20399;-65
2024/01/05 12:47:09;;;;;;;11.82;5.90;;;10.50;99.90;;;;;;5087505;28;20063;-71
2024/01/05 12:49:57;;;;;;;12.07;5.30;;;10.20;99.90;;;;;;5087743;28;20059;-73
2024/01/05 12:52:45;;;;;;;11.02;5.82;;;9.90;99.90;;;;;;5084815;28;20047;-67
2024/01/05 12:55:33;;;;;;;9.70;4.75;;;9.70;99.90;;;;;;5087601;28;20048;-65
2024/01/05 12:58:20;;;;;;;9.05;5.57;;;9.50;99.90;;;;;;5073502;28;20051;-65
2024/01/05 13:01:21;;;;;;;9.65;5.32;;;9.20;99.90;;;;;;5087380;28;20056;-62
2024/01/05 13:04:09;;;;;;;9.55;5.32;;;9.00;99.90;;;;;;5098685;28;20051;-63
2024/01/05 13:06:56;;;;;;;9.50;5.03;;;8.80;99.90;;;;;;5089852;28;20052;-64